sensor_id;sensor_type;location;lat;lon;timestamp;P1;durP1;ratioP1;P2;durP2;ratioP2
71464;SDS011;59274;49.874;9.154;2023-07-30T00:00:00;4.83;;;2.30;;
71464;SDS011;59274;49.874;9.154;2023-07-30T00:02:26;4.50;;;2.10;;
71464;SDS011;59274;49.874;9.154;2023-07-30T00:04:51;5.60;;;3.17;;
71464;SDS011;59274;49.874;9.154;2023-07-30T00:07:17;5.75;;;2.47;;
71464;SDS011;59274;49.874;9.154;2023-07-30T00:09:42;5.53;;;2.60;;
71464;SDS011;59274;49.874;9.154;2023-07-30T00:12:08;4.97;;;2.30;;
71464;SDS011;59274;49.874;9.154;2023-07-30T00:14:34;4.63;;;2.22;;
71464;SDS011;59274;49.874;9.154;2023-07-30T00:17:00;4.95;;;2.35;;
71464;SDS011;59274;49.874;9.154;2023-07-30T00:19:26;5.93;;;2.60;;
71464;SDS011;59274;49.874;9.154;2023-07-30T00:21:51;5.57;;;2.28;;
71464;SDS011;59274;49.874;9.154;2023-07-30T00:24:17;5.77;;;2.53;;
71464;SDS011;59274;49.874;9.154;2023-07-30T00:26:43;6.05;;;2.33;;
71464;SDS011;59274;49.874;9.154;2023-07-30T00:29:08;5.50;;;2.60;;
71464;SDS011;59274;49.874;9.154;2023-07-30T00:31:33;5.60;;;2.43;;
71464;SDS011;59274;49.874;9.154;2023-07-30T00:33:59;5.17;;;2.50;;
71464;SDS011;59274;49.874;9.154;2023-07-30T00:36:24;6.28;;;2.55;;
71464;SDS011;59274;49.874;9.154;2023-07-30T00:38:50;5.95;;;2.40;;
71464;SDS011;59274;49.874;9.154;2023-07-30T00:41:15;4.70;;;2.50;;
71464;SDS011;59274;49.874;9.154;2023-07-30T00:43:40;4.57;;;2.40;;
71464;SDS011;59274;49.874;9.154;2023-07-30T00:46:06;4.20;;;2.30;;
71464;SDS011;59274;49.874;9.154;2023-07-30T00:48:32;7.43;;;2.15;;
71464;SDS011;59274;49.874;9.154;2023-07-30T00:50:57;3.83;;;2.10;;
71464;SDS011;59274;49.874;9.154;2023-07-30T00:53:25;6.03;;;1.90;;
71464;SDS011;59274;49.874;9.154;2023-07-30T00:55:51;3.72;;;2.00;;
71464;SDS011;59274;49.874;9.154;2023-07-30T00:58:17;4.18;;;2.15;;
71464;SDS011;59274;49.874;9.154;2023-07-30T01:00:45;4.90;;;2.28;;
71464;SDS011;59274;49.874;9.154;2023-07-30T01:03:11;4.57;;;2.10;;
71464;SDS011;59274;49.874;9.154;2023-07-30T01:05:36;3.90;;;2.00;;
71464;SDS011;59274;49.874;9.154;2023-07-30T01:08:02;6.30;;;2.50;;
71464;SDS011;59274;49.874;9.154;2023-07-30T01:10:28;4.53;;;2.20;;
71464;SDS011;59274;49.874;9.154;2023-07-30T01:12:57;5.82;;;2.20;;
71464;SDS011;59274;49.874;9.154;2023-07-30T01:15:26;4.40;;;2.42;;
71464;SDS011;59274;49.874;9.154;2023-07-30T01:17:53;5.68;;;2.60;;
71464;SDS011;59274;49.874;9.154;2023-07-30T01:20:18;5.40;;;2.60;;
71464;SDS011;59274;49.874;9.154;2023-07-30T01:22:44;5.13;;;2.40;;
71464;SDS011;59274;49.874;9.154;2023-07-30T01:25:09;5.95;;;2.60;;
71464;SDS011;59274;49.874;9.154;2023-07-30T01:27:39;4.47;;;2.03;;
71464;SDS011;59274;49.874;9.154;2023-07-30T01:32:34;4.67;;;2.50;;
71464;SDS011;59274;49.874;9.154;2023-07-30T01:35:01;6.15;;;2.50;;
71464;SDS011;59274;49.874;9.154;2023-07-30T01:37:27;4.70;;;2.40;;
71464;SDS011;59274;49.874;9.154;2023-07-30T01:39:54;4.83;;;2.40;;
71464;SDS011;59274;49.874;9.154;2023-07-30T01:42:21;5.10;;;2.30;;
71464;SDS011;59274;49.874;9.154;2023-07-30T01:44:46;5.68;;;2.50;;
71464;SDS011;59274;49.874;9.154;2023-07-30T01:47:12;5.20;;;2.27;;
71464;SDS011;59274;49.874;9.154;2023-07-30T01:49:37;5.17;;;2.50;;
71464;SDS011;59274;49.874;9.154;2023-07-30T01:52:03;5.53;;;2.37;;
71464;SDS011;59274;49.874;9.154;2023-07-30T01:54:28;4.93;;;2.50;;
71464;SDS011;59274;49.874;9.154;2023-07-30T01:56:54;4.70;;;2.40;;
71464;SDS011;59274;49.874;9.154;2023-07-30T01:59:19;4.30;;;2.13;;
71464;SDS011;59274;49.874;9.154;2023-07-30T02:01:45;4.90;;;2.13;;
71464;SDS011;59274;49.874;9.154;2023-07-30T02:04:10;5.88;;;2.30;;
71464;SDS011;59274;49.874;9.154;2023-07-30T02:06:35;3.77;;;2.07;;
71464;SDS011;59274;49.874;9.154;2023-07-30T02:09:01;5.80;;;2.30;;
71464;SDS011;59274;49.874;9.154;2023-07-30T02:11:27;4.55;;;2.35;;
71464;SDS011;59274;49.874;9.154;2023-07-30T02:13:53;6.30;;;2.38;;
71464;SDS011;59274;49.874;9.154;2023-07-30T02:16:18;4.80;;;2.07;;
71464;SDS011;59274;49.874;9.154;2023-07-30T02:18:44;5.17;;;2.27;;
71464;SDS011;59274;49.874;9.154;2023-07-30T02:21:10;4.27;;;2.23;;
71464;SDS011;59274;49.874;9.154;2023-07-30T02:23:35;6.95;;;2.08;;
71464;SDS011;59274;49.874;9.154;2023-07-30T02:26:00;5.47;;;2.17;;
71464;SDS011;59274;49.874;9.154;2023-07-30T02:28:26;8.27;;;2.23;;
71464;SDS011;59274;49.874;9.154;2023-07-30T02:30:51;5.10;;;2.03;;
71464;SDS011;59274;49.874;9.154;2023-07-30T02:33:17;4.00;;;2.10;;
71464;SDS011;59274;49.874;9.154;2023-07-30T02:35:43;4.23;;;2.10;;
71464;SDS011;59274;49.874;9.154;2023-07-30T02:38:08;3.25;;;1.85;;
71464;SDS011;59274;49.874;9.154;2023-07-30T02:40:34;4.33;;;2.10;;
71464;SDS011;59274;49.874;9.154;2023-07-30T02:43:00;4.50;;;2.00;;
71464;SDS011;59274;49.874;9.154;2023-07-30T02:45:25;3.30;;;1.90;;
71464;SDS011;59274;49.874;9.154;2023-07-30T02:47:51;4.57;;;2.20;;
71464;SDS011;59274;49.874;9.154;2023-07-30T02:50:16;5.27;;;2.00;;
71464;SDS011;59274;49.874;9.154;2023-07-30T02:52:41;4.40;;;2.10;;
71464;SDS011;59274;49.874;9.154;2023-07-30T02:55:07;3.73;;;2.00;;
71464;SDS011;59274;49.874;9.154;2023-07-30T02:57:33;3.03;;;1.80;;
71464;SDS011;59274;49.874;9.154;2023-07-30T02:59:58;3.88;;;2.13;;
71464;SDS011;59274;49.874;9.154;2023-07-30T03:02:23;5.77;;;2.20;;
71464;SDS011;59274;49.874;9.154;2023-07-30T03:04:49;3.97;;;2.00;;
71464;SDS011;59274;49.874;9.154;2023-07-30T03:07:14;4.50;;;2.20;;
71464;SDS011;59274;49.874;9.154;2023-07-30T03:09:40;4.38;;;2.28;;
71464;SDS011;59274;49.874;9.154;2023-07-30T03:12:05;4.17;;;2.20;;
71464;SDS011;59274;49.874;9.154;2023-07-30T03:14:34;4.60;;;2.03;;
71464;SDS011;59274;49.874;9.154;2023-07-30T03:16:59;4.40;;;2.10;;
71464;SDS011;59274;49.874;9.154;2023-07-30T03:19:25;4.77;;;2.20;;
71464;SDS011;59274;49.874;9.154;2023-07-30T03:21:50;3.77;;;2.10;;
71464;SDS011;59274;49.874;9.154;2023-07-30T03:24:16;4.82;;;2.00;;
71464;SDS011;59274;49.874;9.154;2023-07-30T03:26:41;3.70;;;2.30;;
71464;SDS011;59274;49.874;9.154;2023-07-30T03:29:06;3.83;;;2.10;;
71464;SDS011;59274;49.874;9.154;2023-07-30T03:31:32;4.23;;;2.07;;
71464;SDS011;59274;49.874;9.154;2023-07-30T03:33:58;3.73;;;1.97;;
71464;SDS011;59274;49.874;9.154;2023-07-30T03:36:23;4.82;;;2.03;;
71464;SDS011;59274;49.874;9.154;2023-07-30T03:38:49;4.40;;;1.90;;
71464;SDS011;59274;49.874;9.154;2023-07-30T03:41:14;4.20;;;2.30;;
71464;SDS011;59274;49.874;9.154;2023-07-30T03:43:40;4.47;;;2.03;;
71464;SDS011;59274;49.874;9.154;2023-07-30T03:46:05;3.90;;;2.17;;
71464;SDS011;59274;49.874;9.154;2023-07-30T03:48:30;3.63;;;1.90;;
71464;SDS011;59274;49.874;9.154;2023-07-30T03:50:56;5.27;;;2.40;;
71464;SDS011;59274;49.874;9.154;2023-07-30T03:53:22;4.30;;;2.33;;
71464;SDS011;59274;49.874;9.154;2023-07-30T03:55:48;4.13;;;2.30;;
71464;SDS011;59274;49.874;9.154;2023-07-30T03:58:13;4.75;;;2.03;;
71464;SDS011;59274;49.874;9.154;2023-07-30T04:00:39;4.60;;;2.40;;
71464;SDS011;59274;49.874;9.154;2023-07-30T04:03:05;5.63;;;2.40;;
71464;SDS011;59274;49.874;9.154;2023-07-30T04:05:30;4.57;;;2.63;;
71464;SDS011;59274;49.874;9.154;2023-07-30T04:07:56;4.65;;;2.67;;
71464;SDS011;59274;49.874;9.154;2023-07-30T04:10:21;5.18;;;2.33;;
71464;SDS011;59274;49.874;9.154;2023-07-30T04:12:47;4.20;;;2.35;;
71464;SDS011;59274;49.874;9.154;2023-07-30T04:15:16;4.57;;;2.25;;
71464;SDS011;59274;49.874;9.154;2023-07-30T04:17:42;4.87;;;2.50;;
71464;SDS011;59274;49.874;9.154;2023-07-30T04:20:08;3.92;;;2.20;;
71464;SDS011;59274;49.874;9.154;2023-07-30T04:22:37;4.83;;;2.00;;
71464;SDS011;59274;49.874;9.154;2023-07-30T04:25:02;5.07;;;2.28;;
71464;SDS011;59274;49.874;9.154;2023-07-30T04:27:28;3.55;;;1.85;;
71464;SDS011;59274;49.874;9.154;2023-07-30T04:29:54;3.97;;;2.17;;
71464;SDS011;59274;49.874;9.154;2023-07-30T04:32:19;3.73;;;2.10;;
71464;SDS011;59274;49.874;9.154;2023-07-30T04:34:45;4.33;;;2.10;;
71464;SDS011;59274;49.874;9.154;2023-07-30T04:37:26;3.20;;;1.90;;
71464;SDS011;59274;49.874;9.154;2023-07-30T04:40:01;4.05;;;2.00;;
71464;SDS011;59274;49.874;9.154;2023-07-30T04:42:27;3.85;;;1.70;;
71464;SDS011;59274;49.874;9.154;2023-07-30T04:44:53;3.43;;;1.83;;
71464;SDS011;59274;49.874;9.154;2023-07-30T04:47:18;5.03;;;2.10;;
71464;SDS011;59274;49.874;9.154;2023-07-30T04:49:44;4.53;;;2.20;;
71464;SDS011;59274;49.874;9.154;2023-07-30T04:52:09;4.28;;;2.20;;
71464;SDS011;59274;49.874;9.154;2023-07-30T04:54:35;3.60;;;2.00;;
71464;SDS011;59274;49.874;9.154;2023-07-30T04:57:01;3.92;;;2.17;;
71464;SDS011;59274;49.874;9.154;2023-07-30T04:59:27;4.00;;;1.90;;
71464;SDS011;59274;49.874;9.154;2023-07-30T05:01:53;3.27;;;1.80;;
71464;SDS011;59274;49.874;9.154;2023-07-30T05:04:18;5.80;;;1.90;;
71464;SDS011;59274;49.874;9.154;2023-07-30T05:06:43;4.22;;;1.73;;
71464;SDS011;59274;49.874;9.154;2023-07-30T05:09:09;4.30;;;1.77;;
71464;SDS011;59274;49.874;9.154;2023-07-30T05:11:36;4.35;;;1.83;;
71464;SDS011;59274;49.874;9.154;2023-07-30T05:14:02;3.27;;;1.90;;
71464;SDS011;59274;49.874;9.154;2023-07-30T05:16:27;4.87;;;2.00;;
71464;SDS011;59274;49.874;9.154;2023-07-30T05:18:53;4.13;;;1.90;;
71464;SDS011;59274;49.874;9.154;2023-07-30T05:21:18;4.20;;;1.87;;
71464;SDS011;59274;49.874;9.154;2023-07-30T05:23:43;6.73;;;2.23;;
71464;SDS011;59274;49.874;9.154;2023-07-30T05:26:09;3.67;;;2.03;;
71464;SDS011;59274;49.874;9.154;2023-07-30T05:28:34;3.20;;;1.90;;
71464;SDS011;59274;49.874;9.154;2023-07-30T05:31:00;3.72;;;1.98;;
71464;SDS011;59274;49.874;9.154;2023-07-30T05:33:25;4.37;;;2.30;;
71464;SDS011;59274;49.874;9.154;2023-07-30T05:35:51;5.13;;;1.97;;
71464;SDS011;59274;49.874;9.154;2023-07-30T05:38:16;3.40;;;2.00;;
71464;SDS011;59274;49.874;9.154;2023-07-30T05:40:42;3.88;;;2.20;;
71464;SDS011;59274;49.874;9.154;2023-07-30T05:43:08;4.05;;;2.30;;
71464;SDS011;59274;49.874;9.154;2023-07-30T05:45:33;4.43;;;2.00;;
71464;SDS011;59274;49.874;9.154;2023-07-30T05:47:59;4.85;;;2.30;;
71464;SDS011;59274;49.874;9.154;2023-07-30T05:50:25;5.40;;;2.00;;
71464;SDS011;59274;49.874;9.154;2023-07-30T05:52:50;3.90;;;2.00;;
71464;SDS011;59274;49.874;9.154;2023-07-30T05:55:16;4.00;;;2.00;;
71464;SDS011;59274;49.874;9.154;2023-07-30T05:57:41;4.80;;;2.37;;
71464;SDS011;59274;49.874;9.154;2023-07-30T06:00:07;4.57;;;1.98;;
71464;SDS011;59274;49.874;9.154;2023-07-30T06:02:33;4.60;;;1.90;;
71464;SDS011;59274;49.874;9.154;2023-07-30T06:05:00;6.57;;;2.10;;
71464;SDS011;59274;49.874;9.154;2023-07-30T06:07:26;3.78;;;2.17;;
71464;SDS011;59274;49.874;9.154;2023-07-30T06:09:51;6.10;;;2.00;;
71464;SDS011;59274;49.874;9.154;2023-07-30T06:12:17;3.97;;;2.17;;
71464;SDS011;59274;49.874;9.154;2023-07-30T06:14:42;5.47;;;2.50;;
71464;SDS011;59274;49.874;9.154;2023-07-30T06:17:08;4.00;;;2.20;;
71464;SDS011;59274;49.874;9.154;2023-07-30T06:19:33;4.10;;;2.20;;
71464;SDS011;59274;49.874;9.154;2023-07-30T06:21:59;5.05;;;2.35;;
71464;SDS011;59274;49.874;9.154;2023-07-30T06:24:24;4.85;;;2.05;;
71464;SDS011;59274;49.874;9.154;2023-07-30T06:26:50;4.17;;;1.93;;
71464;SDS011;59274;49.874;9.154;2023-07-30T06:29:16;4.30;;;2.00;;
71464;SDS011;59274;49.874;9.154;2023-07-30T06:31:41;3.60;;;2.10;;
71464;SDS011;59274;49.874;9.154;2023-07-30T06:34:06;4.37;;;2.47;;
71464;SDS011;59274;49.874;9.154;2023-07-30T06:36:32;5.27;;;2.20;;
71464;SDS011;59274;49.874;9.154;2023-07-30T06:38:57;4.25;;;2.20;;
71464;SDS011;59274;49.874;9.154;2023-07-30T06:41:23;4.10;;;2.30;;
71464;SDS011;59274;49.874;9.154;2023-07-30T06:43:50;5.60;;;2.28;;
71464;SDS011;59274;49.874;9.154;2023-07-30T06:46:15;4.10;;;2.23;;
71464;SDS011;59274;49.874;9.154;2023-07-30T06:48:41;5.13;;;2.57;;
71464;SDS011;59274;49.874;9.154;2023-07-30T06:51:06;6.95;;;2.50;;
71464;SDS011;59274;49.874;9.154;2023-07-30T06:53:32;4.73;;;2.40;;
71464;SDS011;59274;49.874;9.154;2023-07-30T06:55:58;4.50;;;2.10;;
71464;SDS011;59274;49.874;9.154;2023-07-30T06:58:23;3.47;;;2.03;;
71464;SDS011;59274;49.874;9.154;2023-07-30T07:00:49;3.80;;;2.20;;
71464;SDS011;59274;49.874;9.154;2023-07-30T07:03:14;3.72;;;2.00;;
71464;SDS011;59274;49.874;9.154;2023-07-30T07:05:40;4.57;;;2.30;;
71464;SDS011;59274;49.874;9.154;2023-07-30T07:08:05;3.73;;;2.13;;
71464;SDS011;59274;49.874;9.154;2023-07-30T07:10:33;4.60;;;2.22;;
71464;SDS011;59274;49.874;9.154;2023-07-30T07:12:59;4.73;;;2.20;;
71464;SDS011;59274;49.874;9.154;2023-07-30T07:15:24;3.37;;;1.93;;
71464;SDS011;59274;49.874;9.154;2023-07-30T07:17:50;4.45;;;2.08;;
71464;SDS011;59274;49.874;9.154;2023-07-30T07:20:15;5.70;;;2.30;;
71464;SDS011;59274;49.874;9.154;2023-07-30T07:22:40;5.13;;;2.27;;
71464;SDS011;59274;49.874;9.154;2023-07-30T07:25:06;4.93;;;2.23;;
71464;SDS011;59274;49.874;9.154;2023-07-30T07:27:32;3.50;;;1.98;;
71464;SDS011;59274;49.874;9.154;2023-07-30T07:29:57;4.43;;;2.17;;
71464;SDS011;59274;49.874;9.154;2023-07-30T07:32:24;5.13;;;2.00;;
71464;SDS011;59274;49.874;9.154;2023-07-30T07:34:49;4.90;;;2.20;;
71464;SDS011;59274;49.874;9.154;2023-07-30T07:37:15;4.65;;;2.10;;
71464;SDS011;59274;49.874;9.154;2023-07-30T07:39:43;3.88;;;2.10;;
71464;SDS011;59274;49.874;9.154;2023-07-30T07:42:09;4.43;;;2.10;;
71464;SDS011;59274;49.874;9.154;2023-07-30T07:44:35;4.63;;;2.00;;
71464;SDS011;59274;49.874;9.154;2023-07-30T07:47:00;8.20;;;1.90;;
71464;SDS011;59274;49.874;9.154;2023-07-30T07:49:26;4.63;;;2.30;;
71464;SDS011;59274;49.874;9.154;2023-07-30T07:51:51;4.75;;;2.03;;
71464;SDS011;59274;49.874;9.154;2023-07-30T07:54:16;4.70;;;2.07;;
71464;SDS011;59274;49.874;9.154;2023-07-30T07:56:42;4.70;;;2.10;;
71464;SDS011;59274;49.874;9.154;2023-07-30T07:59:07;3.17;;;1.90;;
71464;SDS011;59274;49.874;9.154;2023-07-30T08:01:33;3.80;;;2.10;;
71464;SDS011;59274;49.874;9.154;2023-07-30T08:03:58;3.63;;;1.95;;
71464;SDS011;59274;49.874;9.154;2023-07-30T08:06:24;4.70;;;2.10;;
71464;SDS011;59274;49.874;9.154;2023-07-30T08:08:49;3.40;;;1.93;;
71464;SDS011;59274;49.874;9.154;2023-07-30T08:11:15;3.90;;;1.80;;
71464;SDS011;59274;49.874;9.154;2023-07-30T08:13:40;3.40;;;2.10;;
71464;SDS011;59274;49.874;9.154;2023-07-30T08:16:06;3.37;;;1.77;;
71464;SDS011;59274;49.874;9.154;2023-07-30T08:18:31;3.47;;;1.73;;
71464;SDS011;59274;49.874;9.154;2023-07-30T08:20:57;3.10;;;1.90;;
71464;SDS011;59274;49.874;9.154;2023-07-30T08:23:22;3.00;;;2.00;;
71464;SDS011;59274;49.874;9.154;2023-07-30T08:25:47;4.90;;;2.00;;
71464;SDS011;59274;49.874;9.154;2023-07-30T08:28:15;3.47;;;1.83;;
71464;SDS011;59274;49.874;9.154;2023-07-30T08:30:40;3.27;;;1.90;;
71464;SDS011;59274;49.874;9.154;2023-07-30T08:33:05;3.83;;;1.98;;
71464;SDS011;59274;49.874;9.154;2023-07-30T08:35:31;2.83;;;1.60;;
71464;SDS011;59274;49.874;9.154;2023-07-30T08:37:56;4.97;;;1.97;;
71464;SDS011;59274;49.874;9.154;2023-07-30T08:40:22;4.70;;;2.23;;
71464;SDS011;59274;49.874;9.154;2023-07-30T08:42:51;4.70;;;1.90;;
71464;SDS011;59274;49.874;9.154;2023-07-30T08:45:17;4.68;;;1.98;;
71464;SDS011;59274;49.874;9.154;2023-07-30T08:47:43;10.40;;;2.20;;
71464;SDS011;59274;49.874;9.154;2023-07-30T08:50:10;8.65;;;2.50;;
71464;SDS011;59274;49.874;9.154;2023-07-30T08:52:35;7.45;;;2.97;;
71464;SDS011;59274;49.874;9.154;2023-07-30T08:55:02;7.10;;;3.30;;
71464;SDS011;59274;49.874;9.154;2023-07-30T08:57:29;10.10;;;3.07;;
71464;SDS011;59274;49.874;9.154;2023-07-30T09:02:41;6.70;;;2.90;;
71464;SDS011;59274;49.874;9.154;2023-07-30T09:05:11;6.10;;;2.70;;
71464;SDS011;59274;49.874;9.154;2023-07-30T09:07:39;8.25;;;2.75;;
71464;SDS011;59274;49.874;9.154;2023-07-30T09:10:07;6.10;;;2.90;;
71464;SDS011;59274;49.874;9.154;2023-07-30T09:12:33;5.93;;;2.55;;
71464;SDS011;59274;49.874;9.154;2023-07-30T09:15:02;7.60;;;2.70;;
71464;SDS011;59274;49.874;9.154;2023-07-30T09:17:32;7.72;;;2.33;;
71464;SDS011;59274;49.874;9.154;2023-07-30T09:19:59;5.07;;;2.60;;
71464;SDS011;59274;49.874;9.154;2023-07-30T09:22:25;4.88;;;2.22;;
71464;SDS011;59274;49.874;9.154;2023-07-30T09:24:56;6.78;;;2.67;;
71464;SDS011;59274;49.874;9.154;2023-07-30T09:27:33;3.95;;;2.08;;
71464;SDS011;59274;49.874;9.154;2023-07-30T09:30:03;4.95;;;2.38;;
71464;SDS011;59274;49.874;9.154;2023-07-30T09:32:35;5.40;;;2.27;;
71464;SDS011;59274;49.874;9.154;2023-07-30T09:35:06;6.25;;;2.30;;
71464;SDS011;59274;49.874;9.154;2023-07-30T09:37:37;5.07;;;2.33;;
71464;SDS011;59274;49.874;9.154;2023-07-30T09:40:06;6.20;;;2.70;;
71464;SDS011;59274;49.874;9.154;2023-07-30T09:42:33;4.97;;;2.50;;
71464;SDS011;59274;49.874;9.154;2023-07-30T09:45:03;4.30;;;2.60;;
71464;SDS011;59274;49.874;9.154;2023-07-30T09:47:30;4.88;;;2.55;;
71464;SDS011;59274;49.874;9.154;2023-07-30T09:49:56;5.03;;;2.65;;
71464;SDS011;59274;49.874;9.154;2023-07-30T09:52:21;4.63;;;2.43;;
71464;SDS011;59274;49.874;9.154;2023-07-30T09:54:48;4.95;;;2.60;;
71464;SDS011;59274;49.874;9.154;2023-07-30T09:57:15;5.05;;;2.50;;
71464;SDS011;59274;49.874;9.154;2023-07-30T09:59:41;5.60;;;2.67;;
71464;SDS011;59274;49.874;9.154;2023-07-30T10:02:06;6.40;;;2.72;;
71464;SDS011;59274;49.874;9.154;2023-07-30T10:04:35;5.32;;;2.70;;
71464;SDS011;59274;49.874;9.154;2023-07-30T10:07:08;5.72;;;2.45;;
71464;SDS011;59274;49.874;9.154;2023-07-30T10:09:40;6.18;;;2.97;;
71464;SDS011;59274;49.874;9.154;2023-07-30T10:12:12;4.70;;;2.50;;
71464;SDS011;59274;49.874;9.154;2023-07-30T10:14:41;5.43;;;2.90;;
71464;SDS011;59274;49.874;9.154;2023-07-30T10:17:09;5.47;;;2.63;;
71464;SDS011;59274;49.874;9.154;2023-07-30T10:19:39;5.63;;;2.70;;
71464;SDS011;59274;49.874;9.154;2023-07-30T10:24:40;2.77;;;1.60;;
71464;SDS011;59274;49.874;9.154;2023-07-30T10:27:38;3.97;;;1.73;;
71464;SDS011;59274;49.874;9.154;2023-07-30T10:30:08;2.17;;;1.40;;
71464;SDS011;59274;49.874;9.154;2023-07-30T10:32:38;1.98;;;1.10;;
71464;SDS011;59274;49.874;9.154;2023-07-30T10:35:09;4.88;;;1.30;;
71464;SDS011;59274;49.874;9.154;2023-07-30T10:38:21;2.83;;;1.30;;
71464;SDS011;59274;49.874;9.154;2023-07-30T10:43:31;1.67;;;1.30;;
71464;SDS011;59274;49.874;9.154;2023-07-30T10:46:02;1.80;;;1.10;;
71464;SDS011;59274;49.874;9.154;2023-07-30T10:48:38;3.40;;;1.48;;
71464;SDS011;59274;49.874;9.154;2023-07-30T10:51:06;2.63;;;1.20;;
71464;SDS011;59274;49.874;9.154;2023-07-30T10:53:32;2.00;;;1.20;;
71464;SDS011;59274;49.874;9.154;2023-07-30T10:56:00;1.80;;;1.00;;
71464;SDS011;59274;49.874;9.154;2023-07-30T10:58:31;1.17;;;0.80;;
71464;SDS011;59274;49.874;9.154;2023-07-30T11:00:57;2.58;;;1.10;;
71464;SDS011;59274;49.874;9.154;2023-07-30T11:03:27;2.72;;;1.20;;
71464;SDS011;59274;49.874;9.154;2023-07-30T11:05:53;3.00;;;0.80;;
71464;SDS011;59274;49.874;9.154;2023-07-30T11:08:32;1.80;;;1.02;;
71464;SDS011;59274;49.874;9.154;2023-07-30T11:11:00;1.85;;;1.02;;
71464;SDS011;59274;49.874;9.154;2023-07-30T11:13:34;1.52;;;1.15;;
71464;SDS011;59274;49.874;9.154;2023-07-30T11:16:14;2.20;;;1.10;;
71464;SDS011;59274;49.874;9.154;2023-07-30T11:19:09;1.55;;;1.00;;
71464;SDS011;59274;49.874;9.154;2023-07-30T11:21:35;1.67;;;1.10;;
71464;SDS011;59274;49.874;9.154;2023-07-30T11:24:00;4.13;;;1.30;;
71464;SDS011;59274;49.874;9.154;2023-07-30T11:26:25;3.33;;;1.20;;
71464;SDS011;59274;49.874;9.154;2023-07-30T11:28:51;2.73;;;1.20;;
71464;SDS011;59274;49.874;9.154;2023-07-30T11:31:17;6.13;;;1.20;;
71464;SDS011;59274;49.874;9.154;2023-07-30T11:33:46;2.80;;;1.25;;
71464;SDS011;59274;49.874;9.154;2023-07-30T11:36:15;3.97;;;1.10;;
71464;SDS011;59274;49.874;9.154;2023-07-30T11:38:43;3.58;;;1.17;;
71464;SDS011;59274;49.874;9.154;2023-07-30T11:41:10;4.50;;;1.30;;
71464;SDS011;59274;49.874;9.154;2023-07-30T11:43:37;2.15;;;1.17;;
71464;SDS011;59274;49.874;9.154;2023-07-30T11:46:14;4.15;;;1.40;;
71464;SDS011;59274;49.874;9.154;2023-07-30T11:48:41;3.33;;;1.37;;
71464;SDS011;59274;49.874;9.154;2023-07-30T11:51:28;4.68;;;1.30;;
71464;SDS011;59274;49.874;9.154;2023-07-30T11:53:55;3.83;;;1.45;;
71464;SDS011;59274;49.874;9.154;2023-07-30T11:58:50;3.15;;;1.40;;
71464;SDS011;59274;49.874;9.154;2023-07-30T12:01:19;3.07;;;1.30;;
71464;SDS011;59274;49.874;9.154;2023-07-30T12:03:44;3.90;;;1.17;;
71464;SDS011;59274;49.874;9.154;2023-07-30T12:06:11;4.70;;;1.47;;
71464;SDS011;59274;49.874;9.154;2023-07-30T12:08:37;5.22;;;1.50;;
71464;SDS011;59274;49.874;9.154;2023-07-30T12:11:03;4.60;;;1.55;;
71464;SDS011;59274;49.874;9.154;2023-07-30T12:13:33;3.72;;;1.40;;
71464;SDS011;59274;49.874;9.154;2023-07-30T12:15:59;5.93;;;1.60;;
71464;SDS011;59274;49.874;9.154;2023-07-30T12:18:25;4.20;;;1.35;;
71464;SDS011;59274;49.874;9.154;2023-07-30T12:20:53;5.30;;;1.58;;
71464;SDS011;59274;49.874;9.154;2023-07-30T12:23:19;5.75;;;1.40;;
71464;SDS011;59274;49.874;9.154;2023-07-30T12:25:45;3.97;;;1.60;;
71464;SDS011;59274;49.874;9.154;2023-07-30T12:28:11;3.67;;;1.52;;
71464;SDS011;59274;49.874;9.154;2023-07-30T12:30:37;4.68;;;1.60;;
71464;SDS011;59274;49.874;9.154;2023-07-30T12:33:05;4.80;;;1.67;;
71464;SDS011;59274;49.874;9.154;2023-07-30T12:35:31;6.38;;;1.60;;
71464;SDS011;59274;49.874;9.154;2023-07-30T12:37:58;3.83;;;1.48;;
71464;SDS011;59274;49.874;9.154;2023-07-30T12:40:26;4.82;;;1.42;;
71464;SDS011;59274;49.874;9.154;2023-07-30T12:42:54;7.03;;;1.70;;
71464;SDS011;59274;49.874;9.154;2023-07-30T12:45:20;4.20;;;1.60;;
71464;SDS011;59274;49.874;9.154;2023-07-30T12:47:46;6.18;;;1.58;;
71464;SDS011;59274;49.874;9.154;2023-07-30T12:50:12;5.50;;;1.75;;
71464;SDS011;59274;49.874;9.154;2023-07-30T12:52:37;3.60;;;1.70;;
71464;SDS011;59274;49.874;9.154;2023-07-30T12:55:03;4.33;;;1.70;;
71464;SDS011;59274;49.874;9.154;2023-07-30T12:57:29;5.25;;;1.90;;
71464;SDS011;59274;49.874;9.154;2023-07-30T12:59:55;5.20;;;2.03;;
71464;SDS011;59274;49.874;9.154;2023-07-30T13:02:21;7.50;;;1.70;;
71464;SDS011;59274;49.874;9.154;2023-07-30T13:04:46;6.20;;;1.70;;
71464;SDS011;59274;49.874;9.154;2023-07-30T13:07:15;4.55;;;1.65;;
71464;SDS011;59274;49.874;9.154;2023-07-30T13:09:40;3.90;;;1.40;;
71464;SDS011;59274;49.874;9.154;2023-07-30T13:12:05;5.70;;;1.80;;
71464;SDS011;59274;49.874;9.154;2023-07-30T13:14:31;4.72;;;1.40;;
71464;SDS011;59274;49.874;9.154;2023-07-30T13:16:57;3.95;;;1.40;;
71464;SDS011;59274;49.874;9.154;2023-07-30T13:19:22;5.20;;;2.00;;
71464;SDS011;59274;49.874;9.154;2023-07-30T13:21:48;5.67;;;1.57;;
71464;SDS011;59274;49.874;9.154;2023-07-30T13:24:13;4.15;;;1.60;;
71464;SDS011;59274;49.874;9.154;2023-07-30T13:26:38;4.40;;;1.70;;
71464;SDS011;59274;49.874;9.154;2023-07-30T13:29:04;4.77;;;1.60;;
71464;SDS011;59274;49.874;9.154;2023-07-30T13:31:29;4.30;;;1.90;;
71464;SDS011;59274;49.874;9.154;2023-07-30T13:33:55;3.63;;;1.50;;
71464;SDS011;59274;49.874;9.154;2023-07-30T13:36:23;6.05;;;1.70;;
71464;SDS011;59274;49.874;9.154;2023-07-30T13:38:48;4.23;;;1.70;;
71464;SDS011;59274;49.874;9.154;2023-07-30T13:41:14;6.05;;;1.92;;
71464;SDS011;59274;49.874;9.154;2023-07-30T13:43:40;4.87;;;1.60;;
71464;SDS011;59274;49.874;9.154;2023-07-30T13:46:05;3.37;;;1.50;;
71464;SDS011;59274;49.874;9.154;2023-07-30T13:48:31;7.03;;;1.80;;
71464;SDS011;59274;49.874;9.154;2023-07-30T13:50:56;3.45;;;1.50;;
71464;SDS011;59274;49.874;9.154;2023-07-30T13:53:22;6.07;;;1.53;;
71464;SDS011;59274;49.874;9.154;2023-07-30T13:55:47;4.55;;;1.50;;
71464;SDS011;59274;49.874;9.154;2023-07-30T13:58:13;5.88;;;1.60;;
71464;SDS011;59274;49.874;9.154;2023-07-30T14:00:40;4.63;;;1.50;;
71464;SDS011;59274;49.874;9.154;2023-07-30T14:03:07;5.60;;;2.10;;
71464;SDS011;59274;49.874;9.154;2023-07-30T14:05:32;5.53;;;1.87;;
71464;SDS011;59274;49.874;9.154;2023-07-30T14:07:58;3.13;;;1.40;;
71464;SDS011;59274;49.874;9.154;2023-07-30T14:10:23;3.83;;;1.40;;
71464;SDS011;59274;49.874;9.154;2023-07-30T14:12:49;5.22;;;1.73;;
71464;SDS011;59274;49.874;9.154;2023-07-30T14:15:15;5.93;;;2.15;;
71464;SDS011;59274;49.874;9.154;2023-07-30T14:17:41;5.73;;;1.90;;
71464;SDS011;59274;49.874;9.154;2023-07-30T14:20:07;4.45;;;1.80;;
71464;SDS011;59274;49.874;9.154;2023-07-30T14:22:33;5.32;;;1.42;;
71464;SDS011;59274;49.874;9.154;2023-07-30T14:25:02;5.00;;;1.45;;
71464;SDS011;59274;49.874;9.154;2023-07-30T14:27:28;5.18;;;1.70;;
71464;SDS011;59274;49.874;9.154;2023-07-30T14:29:53;3.80;;;1.75;;
71464;SDS011;59274;49.874;9.154;2023-07-30T14:32:19;3.23;;;1.50;;
71464;SDS011;59274;49.874;9.154;2023-07-30T14:34:45;4.15;;;1.40;;
71464;SDS011;59274;49.874;9.154;2023-07-30T14:37:10;4.65;;;1.60;;
71464;SDS011;59274;49.874;9.154;2023-07-30T14:39:39;6.17;;;1.80;;
71464;SDS011;59274;49.874;9.154;2023-07-30T14:42:05;4.70;;;1.70;;
71464;SDS011;59274;49.874;9.154;2023-07-30T14:44:31;3.63;;;1.50;;
71464;SDS011;59274;49.874;9.154;2023-07-30T14:46:56;6.13;;;2.00;;
71464;SDS011;59274;49.874;9.154;2023-07-30T14:49:23;6.97;;;1.80;;
71464;SDS011;59274;49.874;9.154;2023-07-30T14:51:49;6.17;;;1.80;;
71464;SDS011;59274;49.874;9.154;2023-07-30T14:54:16;4.40;;;1.60;;
71464;SDS011;59274;49.874;9.154;2023-07-30T14:56:42;4.75;;;1.60;;